Latest Weather Observations for Kingfish B

IDV60801

Issued at 11:05 pm EDT Wednesday 22 October 2014 (issued every 30 minutes, with the page automatically refreshed every 10 minutes)

About weather observations | Map of weather stations | Latest weather observations for VIC | Other Formats
Station Details ID: 400139 Name: KINGFISH B (PLATFORM) Lat: -38.60 Lon: 148.19 Height: 31.4 m
Data from the previous 72 hours. | See also: Recent months for locations in Victoria
Date/Time
EDT
Temp
°C
App
Temp
°C
Dew
Point
Rel
Hum
%
Delta-T
°C
Wind Press
QNH
hPa
Press
MSL
hPa
Rain
since 9 am
mm
Dir
 
Spd
km/h
Gust
km/h
Spd
kts
Gust
kts
22/10:50pm 18.5 13.5 13.3 71 2.9 NE 32 33 17 18 1015.5 - -
22/10:40pm 18.5 12.9 13.4 72 2.9 NNE 35 37 19 20 1015.7 - -
22/10:30pm 18.0 13.1 13.8 76 2.4 NNE 32 37 17 20 1016.0 - -
22/10:20pm 17.9 14.9 13.8 77 2.3 NNE 22 26 12 14 1016.6 - -
22/10:10pm 17.8 15.8 13.8 77 2.3 NNE 17 19 9 10 1016.9 - -
22/10:00pm 17.8 15.4 13.8 77 2.3 NNE 19 19 10 10 1016.8 - -
22/09:50pm 17.8 15.2 13.8 77 2.3 NNE 20 22 11 12 1016.6 - -
22/09:40pm 17.7 15.1 13.9 78 2.2 NNE 20 22 11 12 1016.5 - -
22/09:30pm 17.6 15.1 14.0 79 2.1 NNE 20 20 11 11 1016.5 - -
22/09:20pm 17.6 15.6 14.0 79 2.1 NE 17 19 9 10 1016.5 - -
22/09:10pm 17.5 15.5 14.0 80 2.0 NE 17 20 9 11 1016.5 - -
22/09:00pm 17.5 15.5 14.0 80 2.0 NE 17 19 9 10 1016.5 - -
22/08:50pm 17.5 15.5 14.0 80 2.0 NE 17 19 9 10 1016.5 - -
22/08:40pm 17.5 15.0 14.0 80 2.0 NE 20 24 11 13 1016.2 - -
22/08:30pm 17.5 14.2 14.0 80 2.0 NE 24 28 13 15 1015.9 - -
22/08:20pm 17.6 13.5 13.9 79 2.1 NE 28 28 15 15 1015.6 - -
22/08:10pm 17.6 13.5 13.9 79 2.1 NE 28 30 15 16 1015.5 - -
22/08:00pm 17.6 13.9 13.9 79 2.1 NE 26 30 14 16 1015.6 - -
22/07:50pm 17.6 13.5 13.9 79 2.1 NE 28 30 15 16 1015.5 - -
22/07:40pm 17.7 13.7 14.0 79 2.1 NE 28 30 15 16 1015.5 - -
22/07:30pm 17.7 14.0 14.0 79 2.1 NE 26 28 14 15 1015.7 - -
22/07:20pm 17.7 14.4 14.0 79 2.1 NE 24 26 13 14 1015.8 - -
22/07:10pm 17.8 14.9 14.0 78 2.2 NE 22 24 12 13 1015.9 - -
22/07:00pm 17.8 14.9 14.0 78 2.2 NE 22 22 12 12 1015.9 - -
22/06:50pm 17.9 15.4 14.0 78 2.2 NE 20 22 11 12 1016.0 - -
22/06:40pm 17.8 15.3 14.0 78 2.2 NE 20 20 11 11 1016.0 - -
22/06:30pm 17.8 15.4 13.9 78 2.2 NE 19 20 10 11 1016.0 - -
22/06:20pm 17.9 15.3 13.8 77 2.3 NE 20 22 11 12 1016.0 - -
22/06:10pm 17.8 14.8 13.7 77 2.3 NE 22 22 12 12 1016.0 - -
22/06:00pm 17.8 15.1 13.6 76 2.4 NE 20 22 11 12 1016.0 - -
22/05:50pm 17.7 15.0 13.6 77 2.3 NE 20 22 11 12 1016.0 - -
22/05:30pm 17.6 14.6 13.7 78 2.2 NE 22 22 12 12 1015.9 - -
22/05:20pm 17.4 14.8 13.8 79 2.0 NE 20 22 11 12 1016.1 - -
22/05:10pm 17.3 14.9 13.8 80 2.0 NE 19 20 10 11 1016.2 - -
22/05:00pm 17.3 14.9 13.9 80 1.9 NE 19 20 10 11 1016.4 - -
22/04:50pm 17.3 15.3 13.9 80 1.9 NE 17 17 9 9 1016.4 - -
22/04:40pm 17.3 15.7 13.9 80 1.9 NE 15 17 8 9 1016.4 - -
22/04:30pm 17.3 15.7 14.0 81 1.9 NE 15 15 8 8 1016.6 - -
22/04:20pm 17.3 16.1 14.0 81 1.9 NE 13 15 7 8 1016.7 - -
22/04:10pm 17.2 16.4 14.0 81 1.8 NE 11 11 6 6 1016.8 - -
22/04:00pm 17.2 16.8 14.0 81 1.8 NE 9 11 5 6 1016.9 - -
22/03:50pm 17.2 16.8 14.0 81 1.8 NE 9 11 5 6 1017.0 - -
22/03:40pm 17.2 17.1 13.9 81 1.9 NE 7 9 4 5 1017.1 - -
22/03:30pm 17.2 17.1 13.9 81 1.9 NE 7 9 4 5 1017.1 - -
22/03:20pm 17.2 16.7 13.9 81 1.9 NE 9 11 5 6 1017.1 - -
22/03:10pm 17.1 16.2 13.8 81 1.9 NE 11 13 6 7 1017.1 - -
22/03:00pm 17.1 15.5 13.8 81 1.9 NE 15 15 8 8 1017.1 - -
22/02:50pm 17.1 15.5 13.8 81 1.9 NE 15 15 8 8 1017.2 - -
22/02:40pm 16.9 15.2 13.7 81 1.8 NE 15 15 8 8 1017.3 - -
22/02:30pm 16.8 15.1 13.5 81 1.9 NE 15 15 8 8 1017.5 - -
22/02:20pm 16.8 15.4 13.4 80 1.9 NE 13 15 7 8 1017.7 - -
22/02:10pm 16.9 15.5 13.4 80 2.0 NE 13 15 7 8 1017.9 - -
22/02:00pm 16.9 15.5 13.5 80 1.9 NE 13 13 7 7 1018.0 - -
22/01:50pm 16.8 15.8 13.4 80 1.9 NE 11 13 6 7 1018.1 - -
22/01:40pm 16.8 15.8 13.4 80 1.9 NE 11 13 6 7 1018.3 - -
22/01:30pm 16.9 16.2 13.3 79 2.0 NE 9 11 5 6 1018.4 - -
22/01:20pm 17.1 16.1 13.4 79 2.1 NE 11 11 6 6 1018.5 - -
22/01:10pm 17.0 16.3 13.3 79 2.1 NE 9 11 5 6 1018.5 - -
22/01:00pm 17.0 16.3 13.1 78 2.2 NE 9 11 5 6 1018.7 - -
22/12:50pm 17.2 16.5 13.1 77 2.3 NE 9 9 5 5 1018.8 - -
22/12:40pm 17.3 16.6 13.2 77 2.3 NE 9 9 5 5 1018.9 - -
22/12:30pm 17.2 16.8 13.1 77 2.3 NE 7 9 4 5 1019.1 - -
22/12:20pm 17.1 16.3 13.0 77 2.3 NE 9 11 5 6 1019.2 - -
22/12:10pm 17.1 16.3 12.8 76 2.4 NNE 9 9 5 5 1019.3 - -
22/12:00pm 17.4 17.0 13.0 75 2.5 NNE 7 9 4 5 1019.6 - -
22/11:40am 17.3 16.5 13.0 76 2.4 NNE 9 11 5 6 1019.8 - -
22/11:30am 17.0 15.8 12.9 77 2.3 NNE 11 13 6 7 1019.8 - -
22/11:20am 17.0 15.3 12.6 75 2.4 NNE 13 15 7 8 1019.9 - -
22/11:10am 17.4 15.8 12.8 74 2.6 NNE 13 17 7 9 1019.9 - -
22/11:00am 17.4 15.8 12.9 75 2.5 NNE 13 17 7 9 1020.0 - -
22/10:50am 17.5 16.0 13.0 75 2.5 NNE 13 15 7 8 1020.1 - -
22/10:40am 17.4 15.9 13.0 75 2.5 NNE 13 17 7 9 1020.2 - -
22/10:30am 17.3 15.4 13.1 76 2.4 NNE 15 17 8 9 1020.2 - -
22/10:20am 17.1 14.8 12.9 76 2.3 NNE 17 19 9 10 1020.2 - -
22/10:10am 17.1 14.7 12.7 75 2.4 NNE 17 20 9 11 1020.2 - -
22/10:00am 17.0 14.0 12.7 76 2.4 NNE 20 24 11 13 1020.3 - -
22/09:50am 17.0 13.6 12.6 75 2.4 NNE 22 24 12 13 1020.3 - -
22/09:40am 17.1 14.3 12.6 75 2.5 NNE 19 22 10 12 1020.5 - -
22/09:30am 17.1 14.3 12.7 75 2.4 NNE 19 20 10 11 1020.5 - -
22/09:20am 17.2 14.4 12.7 75 2.5 NNE 19 20 10 11 1020.6 - -
22/09:10am 17.2 14.4 12.7 75 2.5 NNE 19 20 10 11 1020.6 - -
22/09:00am 17.3 14.5 12.7 74 2.6 NNE 19 20 10 11 1020.6 - -
22/08:50am 17.4 14.7 12.8 74 2.6 NNE 19 20 10 11 1020.6 - -
22/08:40am 17.4 15.0 12.7 74 2.6 NNE 17 22 9 12 1020.8 - -
22/08:30am 17.5 14.7 12.7 73 2.7 NNE 19 22 10 12 1020.8 - -
22/08:20am 17.6 14.8 12.7 73 2.7 NNE 19 20 10 11 1020.9 - -
22/08:10am 17.6 15.2 12.6 72 2.8 NNE 17 20 9 11 1020.9 - -
22/08:00am 17.7 14.9 12.7 72 2.8 NNE 19 20 10 11 1020.9 - -
22/07:50am 17.7 15.3 12.8 73 2.7 NNE 17 19 9 10 1020.9 - -
22/07:40am 17.4 14.6 12.7 74 2.6 NNE 19 20 10 11 1020.9 - -
22/07:30am 17.6 15.0 13.1 75 2.5 NNE 19 22 10 12 1020.9 - -
22/07:20am 17.1 14.5 13.2 78 2.2 NNE 19 20 10 11 1021.0 - -
22/07:10am 16.8 14.6 13.4 80 1.9 NNE 17 20 9 11 1021.1 - -
22/07:00am 16.5 14.0 13.6 83 1.6 NNE 19 20 10 11 1021.0 - -
22/06:50am 16.0 13.5 13.6 86 1.3 N 19 20 10 11 1021.1 - -
22/06:40am 15.5 13.3 13.3 87 1.2 N 17 20 9 11 1021.1 - -
22/06:30am 15.1 12.5 13.1 88 1.1 NNE 19 22 10 12 1021.0 - -
22/06:20am 14.9 12.0 12.9 88 1.1 NNE 20 22 11 12 1020.8 - -
22/06:10am 14.9 12.2 12.8 87 1.2 NNE 19 22 10 12 1020.8 - -
22/06:00am 14.9 11.9 12.7 87 1.2 NNE 20 22 11 12 1020.7 - -
22/05:50am 15.0 11.7 12.7 86 1.3 NNE 22 26 12 14 1020.6 - -
22/05:40am 15.1 11.7 12.5 84 1.4 NNE 22 28 12 15 1020.5 - -
22/05:30am 15.0 11.5 12.2 83 1.5 NNE 22 28 12 15 1020.4 - -
22/05:20am 15.0 10.7 12.1 83 1.6 NNE 26 30 14 16 1020.4 - -
22/05:10am 15.0 11.1 12.0 82 1.6 NE 24 26 13 14 1020.5 - -
22/05:00am 15.0 11.0 11.9 82 1.7 NE 24 28 13 15 1020.6 - -
22/04:50am 15.0 11.0 11.9 82 1.7 NE 24 28 13 15 1020.7 - -
22/04:40am 15.0 10.7 11.9 82 1.7 NE 26 30 14 16 1020.6 - -
22/04:20am 15.0 10.2 11.8 81 1.7 NE 28 30 15 16 1021.0 - -
22/04:10am 15.0 10.6 11.8 81 1.7 NE 26 30 14 16 1021.2 - -
22/04:00am 15.0 11.0 11.8 81 1.7 NE 24 30 13 16 1021.3 - -
22/03:50am 15.0 10.6 11.6 80 1.8 NE 26 30 14 16 1021.4 - -
22/03:40am 15.0 10.2 11.6 80 1.8 NE 28 32 15 17 1021.4 - -
22/03:30am 15.0 10.2 11.6 80 1.8 NE 28 33 15 18 1021.5 - -
22/03:20am 15.1 10.3 11.6 79 1.9 NE 28 32 15 17 1021.6 - -
22/03:10am 15.0 9.8 11.5 79 1.9 NE 30 33 16 18 1021.8 - -
22/03:00am 15.1 10.3 11.5 79 1.9 NE 28 33 15 18 1022.0 - -
22/02:50am 15.1 9.9 11.5 79 1.9 NE 30 33 16 18 1022.1 - -
22/02:40am 15.1 9.5 11.5 79 1.9 NE 32 35 17 19 1022.2 - -
22/02:30am 15.1 9.5 11.4 78 2.0 NE 32 35 17 19 1022.4 - -
22/02:20am 15.1 9.5 11.4 78 2.0 NE 32 37 17 20 1022.6 - -
22/02:10am 15.1 8.5 11.3 78 2.0 NE 37 41 20 22 1022.6 - -
22/02:00am 15.1 8.5 11.2 77 2.1 NE 37 43 20 23 1022.6 - -
22/01:50am 15.2 8.6 11.2 77 2.1 NE 37 43 20 23 1022.8 - -
22/01:30am 15.1 8.5 11.3 78 2.0 NE 37 43 20 23 1023.2 - -
22/01:20am 15.1 8.5 11.5 79 1.9 NE 37 43 20 23 1023.3 - -
22/01:10am 15.1 8.6 11.6 79 1.9 NE 37 44 20 24 1023.5 - -
22/01:00am 15.3 8.8 11.8 79 1.9 NE 37 43 20 23 1023.6 - -
22/12:50am 15.3 8.4 11.7 79 1.9 NE 39 48 21 26 1023.7 - -
22/12:40am 15.3 7.7 11.7 79 1.9 NE 43 52 23 28 1023.8 - -
22/12:30am 15.3 7.7 11.7 79 1.9 NE 43 52 23 28 1024.0 - -
22/12:20am 15.3 7.7 11.7 79 1.9 NE 43 48 23 26 1024.1 - -
22/12:10am 15.3 7.7 11.7 79 1.9 NE 43 50 23 27 1024.2 - -
22/12:00am 15.3 7.5 11.7 79 1.9 NE 44 52 24 28 1024.3 - -
 
Date/Time
EDT
Temp
°C
App
Temp
°C
Dew
Point
Rel
Hum
%
Delta-T
°C
Wind Press
QNH
hPa
Press
MSL
hPa
Rain
since 9 am
mm
Dir
 
Spd
km/h
Gust
km/h
Spd
kts
Gust
kts
21/11:50pm 15.3 7.1 11.7 79 1.9 NE 46 52 25 28 1024.4 - -
21/11:40pm 15.3 7.5 11.7 79 1.9 NE 44 52 24 28 1024.5 - -
21/11:30pm 15.3 7.5 11.7 79 1.9 NE 44 52 24 28 1024.6 - -
21/11:20pm 15.3 7.7 11.8 79 1.9 NE 43 50 23 27 1024.8 - -
21/11:10pm 15.3 7.5 11.7 79 1.9 NE 44 52 24 28 1024.9 - -
21/11:00pm 15.3 7.1 11.6 78 2.0 NE 46 56 25 30 1025.0 - -
21/10:50pm 15.3 7.1 11.6 78 2.0 NE 46 52 25 28 1025.2 - -
21/10:40pm 15.3 6.7 11.6 78 2.0 NE 48 57 26 31 1025.2 - -
21/10:30pm 15.3 6.3 11.5 78 2.0 NE 50 57 27 31 1025.2 - -
21/10:20pm 15.3 6.7 11.5 78 2.0 NE 48 57 26 31 1025.4 - -
21/10:10pm 15.3 6.3 11.5 78 2.0 ENE 50 59 27 32 1025.5 - -
21/09:50pm 15.2 6.1 11.4 78 2.0 ENE 50 57 27 31 1025.5 - -
21/09:40pm 15.3 7.0 11.4 77 2.1 ENE 46 56 25 30 1025.5 - -
21/09:30pm 15.2 6.5 11.3 77 2.1 ENE 48 56 26 30 1025.6 - -
21/09:20pm 15.3 6.2 11.2 76 2.2 ENE 50 59 27 32 1025.5 - -
21/09:10pm 15.3 6.2 11.2 76 2.2 ENE 50 61 27 33 1025.4 - -
21/09:00pm 15.3 6.1 11.0 75 2.3 ENE 50 59 27 32 1025.4 - -
21/08:50pm 15.3 5.4 11.0 75 2.3 ENE 54 63 29 34 1025.4 - -
21/08:40pm 15.3 6.6 11.2 76 2.2 ENE 48 61 26 33 1025.5 - -
21/08:30pm 15.4 6.6 11.0 75 2.3 ENE 48 63 26 34 1025.5 - -
21/08:20pm 15.3 5.7 10.9 75 2.3 ENE 52 65 28 35 1025.4 - -
21/08:10pm 15.3 6.9 10.9 75 2.3 ENE 46 59 25 32 1025.5 - -
21/08:00pm 15.3 5.7 10.8 74 2.4 ENE 52 63 28 34 1025.4 - -
21/07:50pm 15.4 7.3 10.7 73 2.5 ENE 44 59 24 32 1025.5 - -
21/07:40pm 15.3 6.4 10.6 73 2.5 ENE 48 61 26 33 1025.4 - -
21/07:30pm 15.4 6.9 10.5 72 2.6 ENE 46 59 25 32 1025.4 - -
21/07:20pm 15.4 7.2 10.4 72 2.6 ENE 44 57 24 31 1025.3 - -
21/07:10pm 15.4 7.2 10.4 72 2.6 ENE 44 57 24 31 1025.3 - -
21/07:00pm 15.4 7.1 10.2 71 2.7 ENE 44 61 24 33 1025.3 - -
21/06:50pm 15.4 6.8 10.2 71 2.7 ENE 46 61 25 33 1025.4 - -
21/06:40pm 15.4 7.3 10.2 71 2.7 ENE 43 56 23 30 1025.4 - -
21/06:30pm 15.4 7.7 10.1 70 2.8 ENE 41 52 22 28 1025.4 - -
21/06:20pm 15.4 7.3 10.0 70 2.8 ENE 43 52 23 28 1025.5 - -
21/06:10pm 15.3 7.9 10.0 70 2.8 ENE 39 46 21 25 1025.7 - -
21/06:00pm 15.3 7.9 9.8 69 2.9 ENE 39 52 21 28 1025.7 - -
21/05:50pm 15.3 7.1 9.6 69 3.0 ENE 43 52 23 28 1025.7 - -
21/05:40pm 15.2 7.0 9.7 69 2.9 ENE 43 52 23 28 1025.7 - -
21/05:30pm 15.2 7.4 9.8 70 2.8 ENE 41 56 22 30 1025.8 - -
21/05:20pm 15.2 7.4 9.7 69 2.9 ENE 41 59 22 32 1025.8 - -
21/05:10pm 15.1 6.7 9.5 69 2.9 ENE 44 57 24 31 1025.8 - -
21/05:00pm 15.1 7.2 9.3 68 3.0 ENE 41 57 22 31 1026.1 - -
21/04:50pm 15.0 6.7 9.2 68 3.0 ENE 43 56 23 30 1026.2 - -
21/04:40pm 15.1 7.1 9.1 67 3.1 ENE 41 56 22 30 1026.3 - -
21/04:30pm 15.0 7.0 9.0 67 3.1 ENE 41 48 22 26 1026.4 - -
21/04:20pm 15.1 7.5 9.0 67 3.1 ENE 39 50 21 27 1026.5 - -
21/04:10pm 15.0 7.4 9.1 68 3.0 ENE 39 50 21 27 1026.6 - -
21/04:00pm 15.0 6.9 8.8 66 3.2 ENE 41 56 22 30 1026.7 - -
21/03:50pm 15.0 7.0 8.9 67 3.1 ENE 41 56 22 30 1026.9 - -
21/03:40pm 15.1 7.1 9.0 67 3.1 ENE 41 52 22 28 1027.1 - -
21/03:30pm 15.1 7.1 8.9 66 3.2 ENE 41 52 22 28 1027.1 - -
21/03:10pm 15.1 7.1 9.0 67 3.1 ENE 41 52 22 28 1027.2 - -
21/03:00pm 15.1 7.4 8.7 65 3.3 ENE 39 50 21 27 1027.3 - -
21/02:50pm 15.1 7.1 8.9 66 3.2 ENE 41 54 22 29 1027.4 - -
21/02:40pm 15.1 7.0 8.7 65 3.3 ENE 41 52 22 28 1027.6 - -
21/02:30pm 15.0 7.3 8.7 66 3.2 ENE 39 50 21 27 1027.8 - -
21/02:20pm 15.0 7.3 8.6 65 3.2 ENE 39 50 21 27 1028.0 - -
21/02:10pm 15.0 5.5 8.5 65 3.3 ENE 48 57 26 31 1028.2 - -
21/02:00pm 15.0 6.3 8.4 64 3.3 ENE 44 54 24 29 1028.4 - -
21/01:50pm 15.0 5.9 8.5 65 3.3 ENE 46 52 25 28 1028.5 - -
21/01:40pm 15.1 6.3 7.9 62 3.6 ENE 44 54 24 29 1028.6 - -
21/01:30pm 15.1 5.8 7.6 61 3.7 ENE 46 57 25 31 1028.8 - -
21/01:20pm 15.2 6.5 7.7 61 3.7 ENE 43 56 23 30 1028.9 - -
21/01:10pm 15.2 6.4 7.4 59 3.9 ENE 43 57 23 31 1028.9 - -
21/01:00pm 15.3 7.3 7.5 59 3.9 ENE 39 54 21 29 1029.1 - -
21/12:50pm 15.3 7.6 7.0 57 4.1 ENE 37 48 20 26 1029.4 - -
21/12:40pm 15.3 7.1 6.7 56 4.2 ENE 39 48 21 26 1029.5 - -
21/12:30pm 15.2 7.5 6.9 57 4.1 ENE 37 48 20 26 1029.5 - -
21/12:20pm 15.2 7.5 7.0 58 4.0 ENE 37 52 20 28 1029.6 - -
21/12:10pm 15.2 7.0 6.7 57 4.1 ENE 39 54 21 29 1029.6 - -
21/11:50am 15.2 7.4 6.5 56 4.2 ENE 37 52 20 28 1030.1 - -
21/11:40am 15.3 7.5 6.5 55 4.3 ENE 37 48 20 26 1030.3 - -
21/11:20am 15.3 7.9 6.6 56 4.2 ENE 35 46 19 25 1030.4 - -
21/11:10am 15.4 7.5 6.1 54 4.5 ENE 37 50 20 27 1030.4 - -
21/11:00am 15.4 6.3 6.1 54 4.5 NE 43 54 23 29 1030.3 - -
21/10:50am 15.4 7.1 6.3 54 4.4 ENE 39 50 21 27 1030.4 - -
21/10:40am 15.4 6.3 6.0 53 4.5 NE 43 54 23 29 1030.5 - -
21/10:30am 15.5 6.3 6.5 55 4.4 NE 44 56 24 30 1030.6 - -
21/10:20am 15.5 5.6 6.6 55 4.3 NE 48 56 26 30 1030.6 - -
21/10:10am 15.5 6.0 6.9 56 4.2 NE 46 54 25 29 1030.7 - -
21/10:00am 15.5 7.0 6.9 56 4.2 NE 41 52 22 28 1030.6 - -
21/09:50am 15.5 5.9 6.4 54 4.4 NE 46 57 25 31 1030.5 - -
21/09:40am 15.5 5.6 6.5 55 4.4 NE 48 57 26 31 1030.5 - -
21/09:30am 15.5 5.6 6.5 55 4.4 NE 48 57 26 31 1030.4 - -
21/09:20am 15.5 6.1 7.1 57 4.1 NE 46 56 25 30 1030.5 - -
21/09:10am 15.5 6.3 6.3 54 4.5 NE 44 56 24 30 1030.4 - -
21/09:00am 15.5 6.2 6.0 53 4.6 NE 44 54 24 29 1030.4 - -
21/08:50am 15.6 5.5 5.5 51 4.8 NE 48 57 26 31 1030.5 - -
21/08:40am 15.5 5.5 6.0 53 4.6 NE 48 56 26 30 1030.5 - -
21/08:30am 15.5 6.4 6.7 55 4.3 NE 44 56 24 30 1030.4 - -
21/08:20am 15.5 5.5 6.2 54 4.5 NE 48 54 26 29 1030.3 - -
21/08:10am 15.5 5.9 6.2 54 4.5 NE 46 54 25 29 1030.4 - -
21/08:00am 15.5 5.9 6.4 54 4.4 NE 46 56 25 30 1030.4 - -
21/07:40am 15.4 6.1 6.1 54 4.5 NE 44 52 24 28 1030.4 - -
21/07:30am 15.3 6.3 6.2 54 4.4 NE 43 52 23 28 1030.3 - -
21/07:20am 15.4 6.4 6.5 55 4.3 NE 43 50 23 27 1030.3 - -
21/07:10am 15.6 7.1 6.8 56 4.3 NE 41 52 22 28 1030.2 - -
21/07:00am 14.9 6.6 6.1 55 4.2 NE 39 50 21 27 1030.1 - -
21/06:50am 14.7 6.8 6.1 56 4.1 NE 37 46 20 25 1030.1 - -
21/06:40am 14.4 6.9 6.5 59 3.8 ENE 35 44 19 24 1030.1 - -
21/06:30am 14.2 6.7 6.2 58 3.8 ENE 35 48 19 26 1030.1 - -
21/06:20am 14.2 6.0 6.7 60 3.6 NE 39 48 21 26 1029.9 - -
21/06:10am 14.2 6.7 6.5 60 3.7 ENE 35 43 19 23 1029.9 - -
21/06:00am 14.2 6.7 6.4 59 3.8 ENE 35 50 19 27 1029.8 - -
21/05:50am 14.2 6.4 6.6 60 3.7 NE 37 48 20 26 1029.8 - -
21/05:40am 14.2 5.9 6.1 58 3.9 NE 39 48 21 26 1029.8 - -
21/05:30am 14.1 6.5 6.0 58 3.9 ENE 35 46 19 25 1029.9 - -
21/05:20am 14.1 6.6 6.1 58 3.8 NE 35 46 19 25 1030.0 - -
21/05:10am 14.0 6.8 5.7 57 3.9 NE 33 41 18 22 1030.0 - -
21/05:00am 14.1 6.9 6.0 58 3.9 NE 33 44 18 24 1030.0 - -
21/04:50am 14.1 7.4 5.7 57 4.0 ENE 30 39 16 21 1030.0 - -
21/04:40am 14.1 7.4 5.7 57 4.0 ENE 30 41 16 22 1030.0 - -
21/04:30am 14.1 6.8 5.6 56 4.0 NE 33 46 18 25 1030.1 - -
21/04:20am 14.1 6.4 5.4 56 4.1 NE 35 43 19 23 1030.1 - -
21/04:10am 14.1 6.9 5.9 57 3.9 NE 33 43 18 23 1030.2 - -
21/04:00am 14.2 6.2 5.7 56 4.0 NE 37 43 20 23 1030.3 - -
21/03:50am 14.1 7.4 5.7 57 4.0 NE 30 39 16 21 1030.4 - -
21/03:40am 14.1 7.9 6.0 58 3.9 ENE 28 37 15 20 1030.4 - -
21/03:30am 14.1 6.8 5.3 55 4.1 NE 33 41 18 22 1030.5 - -
21/03:20am 14.1 7.7 5.4 56 4.1 ENE 28 37 15 20 1030.5 - -
21/03:10am 14.2 6.9 5.5 56 4.1 NE 33 41 18 22 1030.5 - -
21/03:00am 14.2 6.2 5.7 56 4.0 NE 37 43 20 23 1030.5 - -
21/02:50am 14.1 6.9 5.9 57 3.9 NE 33 39 18 21 1030.6 - -
21/02:40am 14.1 7.2 6.3 59 3.7 ENE 32 41 17 22 1030.7 - -
21/02:30am 14.1 7.7 6.9 62 3.5 ENE 30 39 16 21 1030.8 - -
21/02:20am 14.0 7.9 6.5 60 3.6 ENE 28 37 15 20 1031.0 - -
21/02:10am 14.0 7.9 6.4 60 3.7 ENE 28 35 15 19 1031.1 - -
21/02:00am 14.0 7.9 6.6 61 3.6 ENE 28 35 15 19 1031.3 - -
21/01:40am 14.0 7.3 5.7 57 3.9 ENE 30 41 16 22 1031.5 - -
21/01:30am 14.0 7.4 6.1 59 3.8 ENE 30 43 16 23 1031.6 - -
21/01:20am 13.9 7.4 6.6 61 3.5 ENE 30 39 16 21 1031.6 - -
21/01:10am 13.9 7.0 6.6 61 3.5 ENE 32 46 17 25 1031.7 - -
21/01:00am 13.9 7.0 6.4 60 3.6 ENE 32 44 17 24 1031.9 - -
21/12:50am 13.9 7.4 6.5 61 3.6 ENE 30 41 16 22 1032.0 - -
21/12:40am 13.8 6.3 6.3 60 3.6 ENE 35 41 19 22 1032.0 - -
21/12:30am 13.8 6.7 6.2 60 3.6 ENE 33 41 18 22 1032.2 - -
21/12:20am 13.7 6.6 5.6 58 3.8 ENE 32 39 17 21 1032.2 - -
21/12:10am 13.7 6.4 5.6 58 3.8 ENE 33 41 18 22 1032.3 - -
21/12:00am 13.7 6.7 5.9 59 3.7 ENE 32 43 17 23 1032.3 - -
 
Date/Time
EDT
Temp
°C
App
Temp
°C
Dew
Point
Rel
Hum
%
Delta-T
°C
Wind Press
QNH
hPa
Press
MSL
hPa
Rain
since 9 am
mm
Dir
 
Spd
km/h
Gust
km/h
Spd
kts
Gust
kts
20/11:50pm 13.7 6.5 5.9 59 3.7 ENE 33 43 18 23 1032.3 - -
20/11:40pm 13.7 6.1 5.6 58 3.8 ENE 35 43 19 23 1032.4 - -
20/11:30pm 13.7 6.1 5.6 58 3.8 ENE 35 43 19 23 1032.4 - -
20/11:20pm 13.7 6.0 5.3 57 3.9 ENE 35 43 19 23 1032.5 - -
20/11:10pm 13.7 6.0 5.4 57 3.9 ENE 35 44 19 24 1032.5 - -
20/11:00pm 13.7 5.7 5.6 58 3.8 ENE 37 43 20 23 1032.5 - -
20/10:40pm 13.7 6.1 5.8 59 3.7 ENE 35 44 19 24 1032.6 - -
20/10:30pm 13.6 5.6 5.5 58 3.8 ENE 37 43 20 23 1032.5 - -
20/10:20pm 13.6 5.4 5.0 56 4.0 ENE 37 43 20 23 1032.5 - -
20/10:10pm 13.6 6.2 4.9 55 4.0 ENE 33 41 18 22 1032.5 - -
20/10:00pm 13.5 6.1 4.9 56 4.0 ENE 33 43 18 23 1032.6 - -
20/09:50pm 13.5 6.1 5.1 57 3.9 ENE 33 41 18 22 1032.7 - -
20/09:40pm 13.4 5.6 4.7 55 4.0 ENE 35 41 19 22 1032.7 - -
20/09:30pm 13.4 5.6 4.9 56 3.9 ENE 35 41 19 22 1032.7 - -
20/09:20pm 13.4 5.2 5.0 57 3.9 E 37 44 20 24 1032.7 - -
20/09:10pm 13.4 5.6 4.8 56 4.0 ENE 35 39 19 21 1032.7 - -
20/09:00pm 13.4 5.6 4.8 56 4.0 E 35 43 19 23 1032.6 - -
20/08:50pm 13.4 6.0 4.9 56 3.9 E 33 43 18 23 1032.6 - -
20/08:40pm 13.4 6.0 4.8 56 4.0 ENE 33 39 18 21 1032.5 - -
20/08:30pm 13.4 6.1 4.7 55 4.0 E 32 41 17 22 1032.4 - -
20/08:20pm 13.4 5.9 4.6 55 4.1 ENE 33 39 18 21 1032.2 - -
20/08:10pm 13.3 6.0 4.5 55 4.0 E 32 39 17 21 1032.2 - -
20/08:00pm 13.3 5.9 4.9 57 3.9 E 33 39 18 21 1032.0 - -
20/07:50pm 13.3 6.0 4.7 56 4.0 E 32 39 17 21 1031.9 - -
20/07:40pm 13.3 5.8 4.4 55 4.1 E 33 39 18 21 1031.9 - -
20/07:30pm 13.3 5.9 4.8 56 3.9 E 33 41 18 22 1031.8 - -
20/07:20pm 13.3 5.8 4.3 54 4.1 E 33 39 18 21 1031.8 - -
20/07:00pm 13.3 6.1 5.1 57 3.8 E 32 37 17 20 1031.7 - -
20/06:50pm 13.3 5.8 4.5 55 4.0 E 33 39 18 21 1031.7 - -
20/06:40pm 13.3 5.8 4.5 55 4.0 E 33 39 18 21 1031.6 - -
20/06:30pm 13.2 5.9 4.7 56 3.9 E 32 37 17 20 1031.6 - -
20/06:20pm 13.2 5.8 4.8 56 3.9 E 33 39 18 21 1031.6 - -
20/06:10pm 13.2 5.9 5.3 58 3.7 E 33 44 18 24 1031.6 - -
20/06:00pm 13.2 5.9 5.3 58 3.7 E 33 39 18 21 1031.6 - -
20/05:50pm 13.2 6.0 5.2 58 3.7 E 32 37 17 20 1031.7 - -
20/05:40pm 13.2 6.1 5.4 59 3.6 E 32 37 17 20 1031.7 - -
20/05:30pm 13.3 6.6 5.6 59 3.6 E 30 37 16 20 1031.7 - -
20/05:20pm 13.3 6.6 5.4 59 3.7 E 30 37 16 20 1031.6 - -
20/05:10pm 13.2 6.5 5.8 61 3.5 E 30 37 16 20 1031.6 - -
20/05:00pm 13.2 6.2 5.9 61 3.5 E 32 39 17 21 1031.5 - -
20/04:50pm 13.2 6.2 6.0 61 3.4 E 32 41 17 22 1031.4 - -
20/04:40pm 13.1 5.9 5.7 61 3.5 E 33 39 18 21 1031.4 - -
20/04:30pm 13.2 6.1 6.3 63 3.3 E 33 39 18 21 1031.4 - -
20/04:20pm 0.0 - - - - NE 0 30 0 16 1031.4 - -
20/04:10pm 0.0 - - - - NE 0 30 0 16 1031.5 - -
20/04:00pm 0.0 - - - - NE 0 30 0 16 1031.5 - -
20/03:50pm 0.0 - - - - NE 0 30 0 16 1031.5 - -
20/03:40pm 0.0 - - - - NE 0 30 0 16 1031.6 - -
20/03:30pm 0.0 - - - - E 30 30 16 16 1031.7 - -
20/03:20pm 13.3 6.9 5.3 58 3.7 E 28 35 15 19 1031.7 - -

Other Formats:

Comma delimited format used in spreadsheet applications
http://www.bom.gov.au/fwo/IDV60801/IDV60801.55039.axf

JavaScript Object Notation format (JSON) in row-major order
http://www.bom.gov.au/fwo/IDV60801/IDV60801.55039.json